Time;durP1;ratioP1;P1;durP2;ratioP2;P2;SDS_P1;SDS_P2;PMS_P1;PMS_P2;Temp;Humidity;BMP_temperature;BMP_pressure;BME280_temperature;BME280_humidity;BME280_pressure;Samples;Min_cycle;Max_cycle;Signal;HPM_P1;HPM_P2
2023/04/16 00:01:50;;;;;;;13.90;12.30;;;;;;;9.31;68.44;100742.11;105812;1256;60437;-70
2023/04/16 00:04:17;;;;;;;18.30;13.00;;;;;;;9.31;68.37;100743.04;105999;1256;66594;-71
2023/04/16 00:06:43;;;;;;;15.10;11.80;;;;;;;9.30;68.39;100745.20;105751;1254;60546;-72
2023/04/16 00:09:10;;;;;;;14.30;12.00;;;;;;;9.30;68.39;100747.34;105939;1254;65104;-71
2023/04/16 00:11:38;;;;;;;15.90;12.10;;;;;;;9.29;68.36;100751.29;105631;1254;60313;-70
2023/04/16 00:14:05;;;;;;;13.60;11.60;;;;;;;9.27;68.33;100754.54;105998;1252;60437;-71
2023/04/16 00:16:32;;;;;;;15.70;11.90;;;;;;;9.27;68.34;100756.30;105888;1256;67050;-71
2023/04/16 00:18:58;;;;;;;13.00;11.40;;;;;;;9.26;68.35;100759.33;105920;1254;60443;-72
2023/04/16 00:21:26;;;;;;;14.40;12.90;;;;;;;9.26;68.43;100753.35;105599;1254;65574;-71
2023/04/16 00:23:53;;;;;;;16.20;13.90;;;;;;;9.27;68.34;100754.73;105752;1256;60434;-73
2023/04/16 00:26:20;;;;;;;17.40;12.70;;;;;;;9.27;68.33;100751.23;105964;1256;60376;-72
2023/04/16 00:28:47;;;;;;;16.90;13.00;;;;;;;9.27;68.26;100751.58;105937;1252;66775;-71
2023/04/16 00:31:13;;;;;;;16.30;13.70;;;;;;;9.27;68.32;100752.62;105893;1254;60452;-72
2023/04/16 00:33:41;;;;;;;16.30;14.00;;;;;;;9.27;68.22;100756.29;105753;1253;65532;-71
2023/04/16 00:36:09;;;;;;;17.90;14.40;;;;;;;9.26;68.16;100755.48;105813;1254;60425;-71
2023/04/16 00:38:36;;;;;;;16.80;13.60;;;;;;;9.26;68.16;100752.88;105687;1257;60411;-70
2023/04/16 00:41:03;;;;;;;16.70;13.80;;;;;;;9.25;68.10;100754.30;105749;1254;66701;-71
2023/04/16 00:43:30;;;;;;;17.30;13.80;;;;;;;9.26;68.09;100761.81;105525;1254;60901;-70
2023/04/16 00:45:57;;;;;;;17.10;14.00;;;;;;;9.27;68.07;100765.64;105547;1257;65587;-72
2023/04/16 00:48:26;;;;;;;18.00;14.50;;;;;;;9.27;68.13;100764.05;105518;1259;60403;-72
2023/04/16 00:50:54;;;;;;;16.70;14.20;;;;;;;9.28;68.10;100767.65;105823;1252;60437;-70
2023/04/16 00:53:22;;;;;;;15.80;12.90;;;;;;;9.30;68.05;100762.46;105555;1254;67077;-73
2023/04/16 00:55:49;;;;;;;17.70;14.40;;;;;;;9.30;68.01;100765.96;105575;1254;60613;-71
2023/04/16 00:58:17;;;;;;;19.70;13.50;;;;;;;9.30;68.04;100763.81;105908;1254;65579;-73
2023/04/16 01:00:43;;;;;;;14.80;13.20;;;;;;;9.31;67.95;100763.38;105945;1252;60444;-71
2023/04/16 01:03:10;;;;;;;14.60;13.10;;;;;;;9.31;67.90;100762.16;105624;1259;60550;-71
2023/04/16 01:05:37;;;;;;;14.30;12.80;;;;;;;9.31;67.89;100762.72;105865;1256;66693;-70
2023/04/16 01:08:05;;;;;;;15.20;12.80;;;;;;;9.32;67.94;100767.41;105607;1256;60542;-72
2023/04/16 01:10:31;;;;;;;14.30;12.80;;;;;;;9.32;68.07;100764.19;105697;1254;65419;-71
2023/04/16 01:12:58;;;;;;;14.80;13.10;;;;;;;9.33;67.86;100768.02;105638;1257;60351;-71
2023/04/16 01:15:26;;;;;;;14.10;12.30;;;;;;;9.32;67.92;100767.71;105594;1253;60551;-71
2023/04/16 01:17:52;;;;;;;14.80;13.20;;;;;;;9.32;67.90;100770.16;105732;1255;66523;-72
2023/04/16 01:20:19;;;;;;;14.80;12.40;;;;;;;9.33;67.91;100769.91;105597;1254;60428;-74
2023/04/16 01:22:46;;;;;;;17.10;12.30;;;;;;;9.34;67.93;100767.94;105778;1254;65199;-71
2023/04/16 01:25:14;;;;;;;14.30;11.80;;;;;;;9.34;67.92;100769.73;105462;1252;224039;-70
2023/04/16 01:27:41;;;;;;;15.10;12.50;;;;;;;9.33;67.92;100768.00;105784;1257;60308;-71
2023/04/16 01:30:08;;;;;;;15.40;12.20;;;;;;;9.32;68.01;100771.44;105717;1256;66617;-71
2023/04/16 01:32:49;;;;;;;14.30;12.10;;;;;;;9.30;68.09;100768.03;105837;1254;60559;-70
2023/04/16 01:35:17;;;;;;;14.70;11.90;;;;;;;9.28;68.13;100772.40;105956;1251;65476;-72
2023/04/16 01:37:43;;;;;;;17.00;12.50;;;;;;;9.27;68.09;100773.02;105828;1256;60457;-71
2023/04/16 01:40:10;;;;;;;14.40;12.50;;;;;;;9.26;68.21;100772.86;105667;1254;60462;-72
2023/04/16 01:42:37;;;;;;;15.10;13.20;;;;;;;9.26;68.26;100774.61;105775;1252;66683;-72
2023/04/16 01:45:05;;;;;;;15.80;13.30;;;;;;;9.27;68.29;100774.05;105708;1254;60387;-70
2023/04/16 01:47:32;;;;;;;16.90;13.10;;;;;;;9.29;68.34;100775.88;105586;1254;64317;-71
2023/04/16 01:49:59;;;;;;;16.30;12.90;;;;;;;9.31;68.34;100775.58;105895;1254;60568;-72
2023/04/16 01:52:26;;;;;;;16.60;13.30;;;;;;;9.31;68.34;100772.39;105514;1258;60384;-70
2023/04/16 01:54:52;;;;;;;14.30;12.80;;;;;;;9.31;68.44;100773.09;105711;1254;65776;-71
2023/04/16 01:57:20;;;;;;;15.00;13.50;;;;;;;9.31;68.48;100769.36;105807;1254;60537;-71
2023/04/16 01:59:46;;;;;;;16.40;13.10;;;;;;;9.32;68.51;100768.45;105615;1254;65434;-71
2023/04/16 02:02:15;;;;;;;15.80;13.40;;;;;;;9.31;68.50;100770.44;106258;1253;60555;-73
2023/04/16 02:04:44;;;;;;;16.10;13.70;;;;;;;9.31;68.48;100769.92;105937;1255;60497;-72
2023/04/16 02:07:11;;;;;;;16.70;13.70;;;;;;;9.32;68.40;100766.36;105690;1252;66541;-72
2023/04/16 02:09:39;;;;;;;20.00;14.40;;;;;;;9.32;68.43;100766.52;105470;1254;60466;-70
2023/04/16 02:12:06;;;;;;;15.70;13.90;;;;;;;9.31;68.51;100768.30;105959;1253;64265;-72
2023/04/16 02:14:34;;;;;;;16.40;14.60;;;;;;;9.30;68.52;100768.22;105918;1252;60962;-71
2023/04/16 02:17:01;;;;;;;15.70;14.00;;;;;;;9.29;68.49;100766.51;105867;1253;60539;-72
2023/04/16 02:19:40;;;;;;;18.50;14.70;;;;;;;9.29;68.45;100765.86;105815;1257;66743;-72
2023/04/16 02:22:08;;;;;;;18.30;14.80;;;;;;;9.28;68.35;100768.88;105996;1255;60417;-74
2023/04/16 02:24:36;;;;;;;18.60;15.10;;;;;;;9.27;68.42;100765.61;105846;1254;65572;-70
2023/04/16 02:27:06;;;;;;;17.30;14.90;;;;;;;9.27;68.37;100766.30;106139;1252;60374;-70
2023/04/16 02:29:33;;;;;;;17.80;15.10;;;;;;;9.27;68.39;100766.12;105544;1253;60424;-68
2023/04/16 02:32:07;;;;;;;16.60;14.70;;;;;;;9.28;68.42;100768.16;105882;1252;66500;-73
2023/04/16 02:34:34;;;;;;;17.00;14.90;;;;;;;9.30;68.44;100765.75;106025;1252;60553;-68
2023/04/16 02:37:01;;;;;;;17.80;14.90;;;;;;;9.31;68.46;100768.86;105865;1254;65261;-69
2023/04/16 02:39:28;;;;;;;18.20;14.70;;;;;;;9.32;68.36;100769.29;105936;1256;60336;-71
2023/04/16 02:41:56;;;;;;;18.90;15.40;;;;;;;9.32;68.47;100771.80;105714;1257;60382;-69
2023/04/16 02:44:23;;;;;;;18.20;16.00;;;;;;;9.31;68.44;100771.30;105732;1257;66604;-71
2023/04/16 02:46:50;;;;;;;21.00;15.20;;;;;;;9.31;68.45;100773.59;105848;1256;60624;-69
2023/04/16 02:49:18;;;;;;;20.20;15.20;;;;;;;9.31;68.40;100779.38;105641;1254;65390;-69
2023/04/16 02:51:48;;;;;;;18.60;15.60;;;;;;;9.31;68.38;100778.84;105654;1252;60671;-67
2023/04/16 02:54:15;;;;;;;19.60;14.80;;;;;;;9.31;68.41;100780.95;105632;1257;60400;-77
2023/04/16 02:56:42;;;;;;;19.00;15.70;;;;;;;9.31;68.34;100782.39;105934;1254;66750;-72
2023/04/16 02:59:09;;;;;;;19.20;15.70;;;;;;;9.32;68.43;100784.61;105708;1253;60435;-75
2023/04/16 03:01:37;;;;;;;18.30;15.80;;;;;;;9.33;68.37;100784.70;105967;1254;65602;-70
2023/04/16 03:04:04;;;;;;;19.80;15.60;;;;;;;9.34;68.36;100785.70;105986;1255;60422;-74
2023/04/16 03:06:32;;;;;;;23.90;16.50;;;;;;;9.34;68.36;100786.24;105939;1254;60508;-76
2023/04/16 03:08:58;;;;;;;23.50;17.10;;;;;;;9.33;68.38;100789.09;106314;1256;66588;-73
2023/04/16 03:11:25;;;;;;;23.00;17.00;;;;;;;9.33;68.41;100793.47;106000;1254;60408;-74
2023/04/16 03:13:52;;;;;;;21.20;15.90;;;;;;;9.32;68.30;100798.11;105719;1254;65342;-73
2023/04/16 03:16:19;;;;;;;19.60;16.70;;;;;;;9.31;68.43;100799.77;105793;1254;60539;-76
2023/04/16 03:18:46;;;;;;;21.50;17.00;;;;;;;9.31;68.44;100801.55;105813;1255;60510;-73
2023/04/16 03:21:12;;;;;;;23.90;18.10;;;;;;;9.30;68.44;100803.55;105945;1254;65521;-74
2023/04/16 03:23:39;;;;;;;21.00;17.30;;;;;;;9.31;68.58;100801.87;105919;1254;60414;-74
2023/04/16 03:26:06;;;;;;;24.80;17.90;;;;;;;9.33;68.48;100801.43;105907;1256;65311;-74
2023/04/16 03:28:34;;;;;;;24.10;18.20;;;;;;;9.32;68.51;100799.01;105937;1258;60395;-73
2023/04/16 03:31:01;;;;;;;24.40;18.60;;;;;;;9.31;68.53;100800.83;105810;1253;60441;-74
2023/04/16 03:33:28;;;;;;;22.80;18.10;;;;;;;9.31;68.58;100801.70;105919;1254;66504;-73
2023/04/16 03:35:56;;;;;;;24.20;19.30;;;;;;;9.32;68.49;100803.75;106072;1254;60466;-74
2023/04/16 03:38:24;;;;;;;22.40;18.30;;;;;;;9.33;68.54;100808.79;105855;1256;64618;-74
2023/04/16 03:40:52;;;;;;;24.10;18.80;;;;;;;9.32;68.39;100807.44;105971;1252;60482;-73
2023/04/16 03:43:19;;;;;;;21.00;18.20;;;;;;;9.31;68.38;100810.48;105875;1256;60441;-73
2023/04/16 03:45:46;;;;;;;21.20;18.00;;;;;;;9.29;68.33;100812.77;105698;1252;66504;-73
2023/04/16 03:48:13;;;;;;;23.60;18.90;;;;;;;9.29;68.37;100810.83;105658;1256;60348;-74
2023/04/16 03:50:39;;;;;;;22.60;17.60;;;;;;;9.30;68.34;100814.46;105681;1257;65552;-72
2023/04/16 03:53:08;;;;;;;24.80;18.70;;;;;;;9.28;68.31;100817.19;105653;1259;60383;-77
2023/04/16 03:55:35;;;;;;;24.70;19.20;;;;;;;9.26;68.29;100821.40;105721;1254;60469;-72
2023/04/16 03:58:03;;;;;;;23.50;19.60;;;;;;;9.25;68.39;100820.39;105728;1254;65552;-73
2023/04/16 04:00:31;;;;;;;21.70;19.30;;;;;;;9.26;68.47;100825.05;105859;1256;60543;-72
2023/04/16 04:03:03;;;;;;;23.30;19.30;;;;;;;9.27;68.33;100825.56;105880;1256;65416;-73
2023/04/16 04:05:35;;;;;;;23.40;18.80;;;;;;;9.28;68.40;100828.67;105768;1252;60355;-73
2023/04/16 04:08:02;;;;;;;24.30;19.30;;;;;;;9.27;68.43;100832.39;105678;1254;60483;-73
2023/04/16 04:10:31;;;;;;;25.10;19.80;;;;;;;9.28;68.45;100830.96;105890;1256;66349;-73
2023/04/16 04:12:59;;;;;;;22.60;18.80;;;;;;;9.28;68.47;100827.92;105732;1258;60584;-74
2023/04/16 04:15:26;;;;;;;25.20;20.10;;;;;;;9.29;68.44;100824.52;105646;1254;65369;-73
2023/04/16 04:17:54;;;;;;;27.20;19.70;;;;;;;9.29;68.48;100825.95;105875;1256;60334;-73
2023/04/16 04:20:22;;;;;;;24.30;20.20;;;;;;;9.29;68.42;100826.27;106053;1254;60482;-74
2023/04/16 04:22:50;;;;;;;25.80;20.30;;;;;;;9.29;68.50;100825.55;105937;1256;66331;-74
2023/04/16 04:25:16;;;;;;;28.50;21.60;;;;;;;9.31;68.53;100825.30;105758;1254;60500;-74
2023/04/16 04:27:43;;;;;;;25.40;20.70;;;;;;;9.31;68.53;100827.87;107342;1252;64638;-74
2023/04/16 04:30:10;;;;;;;27.70;21.40;;;;;;;9.32;68.49;100826.59;105572;1258;60412;-71
2023/04/16 04:32:37;;;;;;;28.20;21.70;;;;;;;9.34;68.49;100826.98;106667;1252;60491;-74
2023/04/16 04:35:05;;;;;;;29.60;21.30;;;;;;;9.34;68.46;100827.68;105910;1254;65756;-73
2023/04/16 04:37:32;;;;;;;26.60;20.90;;;;;;;9.35;68.34;100828.89;105693;1254;60491;-72
2023/04/16 04:39:59;;;;;;;28.10;21.50;;;;;;;9.36;68.28;100830.73;105876;1254;65474;-75
2023/04/16 04:42:27;;;;;;;28.00;21.40;;;;;;;9.38;68.36;100835.31;105854;1253;60555;-76
2023/04/16 04:44:56;;;;;;;31.50;21.80;;;;;;;9.40;68.28;100835.55;106010;1259;60523;-78
2023/04/16 04:47:23;;;;;;;26.80;21.00;;;;;;;9.40;68.28;100833.63;105995;1253;65306;-73
2023/04/16 04:49:52;;;;;;;30.10;21.90;;;;;;;9.40;68.20;100835.40;106806;1253;60513;-75
2023/04/16 04:52:19;;;;;;;29.30;21.40;;;;;;;9.39;68.15;100838.77;106092;1254;65380;-84
2023/04/16 04:54:47;;;;;;;31.30;22.20;;;;;;;9.41;68.24;100837.91;106156;1254;60402;-70
2023/04/16 04:57:14;;;;;;;29.50;22.60;;;;;;;9.45;68.22;100839.61;105727;1256;60320;-70
2023/04/16 04:59:42;;;;;;;28.70;22.20;;;;;;;9.47;68.21;100842.64;105502;1254;65719;-71
2023/04/16 05:02:11;;;;;;;28.90;21.90;;;;;;;9.50;68.22;100840.71;105679;1257;60470;-69
2023/04/16 05:04:39;;;;;;;28.10;22.10;;;;;;;9.50;67.99;100842.82;105529;1259;65364;-70
2023/04/16 05:07:06;;;;;;;25.70;20.00;;;;;;;9.49;67.93;100843.77;105794;1256;60342;-71
2023/04/16 05:09:33;;;;;;;28.20;20.90;;;;;;;9.47;67.94;100844.21;106081;1254;60366;-71
2023/04/16 05:12:00;;;;;;;28.60;21.60;;;;;;;9.46;67.99;100845.15;105589;1253;66544;-71
2023/04/16 05:14:28;;;;;;;32.30;21.60;;;;;;;9.46;68.06;100848.88;105679;1256;60438;-69
2023/04/16 05:16:55;;;;;;;28.60;22.20;;;;;;;9.45;67.95;100851.54;105530;1257;65568;-74
2023/04/16 05:19:22;;;;;;;31.10;21.70;;;;;;;9.45;67.93;100856.97;106112;1251;60543;-71
2023/04/16 05:21:49;;;;;;;28.20;21.20;;;;;;;9.46;67.93;100858.38;105326;1254;62475;-71
2023/04/16 05:24:16;;;;;;;29.40;21.80;;;;;;;9.45;67.92;100858.05;106089;1252;67093;-69
2023/04/16 05:26:43;;;;;;;27.60;21.60;;;;;;;9.45;67.89;100854.51;106331;1254;60541;-70
2023/04/16 05:29:10;;;;;;;29.70;21.80;;;;;;;9.46;67.85;100857.63;106117;1251;65464;-72
2023/04/16 05:31:38;;;;;;;30.60;22.20;;;;;;;9.49;67.78;100855.54;106117;1254;60456;-69
2023/04/16 05:34:05;;;;;;;27.30;22.30;;;;;;;9.51;67.91;100855.73;105588;1257;60512;-71
2023/04/16 05:36:33;;;;;;;28.50;21.40;;;;;;;9.53;67.83;100858.05;106461;1254;66762;-70
2023/04/16 05:39:00;;;;;;;27.60;21.00;;;;;;;9.53;67.76;100859.65;105886;1256;60623;-71
2023/04/16 05:41:28;;;;;;;31.10;21.40;;;;;;;9.54;67.70;100865.02;105706;1254;65350;-69
2023/04/16 05:43:55;;;;;;;28.50;21.40;;;;;;;9.56;67.74;100863.33;106029;1254;60459;-71
2023/04/16 05:46:22;;;;;;;31.40;22.60;;;;;;;9.56;67.58;100862.27;105767;1257;60303;-73
2023/04/16 05:48:49;;;;;;;29.70;22.20;;;;;;;9.57;67.54;100862.04;106034;1254;65259;-75
2023/04/16 05:51:16;;;;;;;29.80;22.00;;;;;;;9.58;67.67;100864.76;106041;1254;60546;-73
2023/04/16 05:53:43;;;;;;;27.10;21.80;;;;;;;9.60;67.57;100860.79;106325;1254;65570;-72
2023/04/16 05:56:09;;;;;;;29.10;22.90;;;;;;;9.60;67.54;100861.65;106136;1254;60434;-72
2023/04/16 05:58:40;;;;;;;32.80;22.80;;;;;;;9.59;67.60;100865.37;106555;1254;60527;-72
2023/04/16 06:01:07;;;;;;;32.30;23.10;;;;;;;9.62;67.65;100870.30;105836;1256;66602;-72
2023/04/16 06:03:34;;;;;;;27.50;22.20;;;;;;;9.65;67.64;100869.87;105444;1254;61064;-71
2023/04/16 06:06:01;;;;;;;32.80;23.60;;;;;;;9.68;67.50;100875.86;106162;1253;65446;-70
2023/04/16 06:08:29;;;;;;;30.50;22.80;;;;;;;9.68;67.61;100878.10;105475;1255;60571;-73
2023/04/16 06:10:56;;;;;;;30.60;23.20;;;;;;;9.70;67.55;100879.07;105587;1251;60453;-70
2023/04/16 06:13:23;;;;;;;28.00;22.20;;;;;;;9.71;67.48;100885.63;105757;1259;66536;-69
2023/04/16 06:15:50;;;;;;;33.40;23.60;;;;;;;9.73;67.47;100884.66;105897;1256;60550;-71
2023/04/16 06:18:19;;;;;;;33.00;23.70;;;;;;;9.75;67.33;100883.30;106021;1254;65559;-69
2023/04/16 06:20:49;;;;;;;30.30;22.80;;;;;;;9.77;67.26;100885.84;105419;1259;60498;-69
2023/04/16 06:23:16;;;;;;;28.60;22.30;;;;;;;9.76;67.21;100888.34;105447;1256;60296;-70
2023/04/16 06:25:43;;;;;;;29.90;23.40;;;;;;;9.77;67.17;100890.38;106389;1256;66359;-71
2023/04/16 06:28:11;;;;;;;31.80;23.00;;;;;;;9.80;67.19;100892.63;105677;1257;61094;-70
2023/04/16 06:30:38;;;;;;;30.40;24.20;;;;;;;9.83;67.21;100894.52;105692;1257;65709;-71
2023/04/16 06:33:05;;;;;;;30.90;22.30;;;;;;;9.84;67.24;100893.42;106355;1255;60872;-70
2023/04/16 06:35:32;;;;;;;30.20;21.70;;;;;;;9.84;67.22;100894.61;105676;1260;60422;-71
2023/04/16 06:37:59;;;;;;;29.60;22.90;;;;;;;9.86;67.17;100894.16;105664;1256;66744;-70
2023/04/16 06:40:26;;;;;;;32.10;24.10;;;;;;;9.89;67.25;100899.96;105821;1254;60470;-70
2023/04/16 06:42:53;;;;;;;30.30;23.70;;;;;;;9.92;67.09;100904.30;105654;1259;65388;-69
2023/04/16 06:45:20;;;;;;;30.30;23.70;;;;;;;9.93;67.05;100902.09;105887;1251;60318;-69
2023/04/16 06:47:49;;;;;;;29.10;22.50;;;;;;;9.95;66.93;100903.23;105581;1253;60466;-70
2023/04/16 06:50:16;;;;;;;32.10;23.90;;;;;;;9.96;66.91;100905.61;106664;1253;66750;-69
2023/04/16 06:52:44;;;;;;;35.00;24.00;;;;;;;9.93;66.69;100905.25;105885;1254;60424;-69
2023/04/16 06:55:11;;;;;;;30.30;22.50;;;;;;;9.91;66.65;100905.95;105622;1255;65552;-69
2023/04/16 06:57:39;;;;;;;27.20;22.00;;;;;;;9.90;66.68;100906.73;105920;1257;60931;-70
2023/04/16 07:00:07;;;;;;;29.30;23.20;;;;;;;9.91;66.71;100908.09;105929;1256;60430;-70
2023/04/16 07:02:34;;;;;;;29.00;23.00;;;;;;;9.91;66.67;100908.06;105879;1256;66732;-69
2023/04/16 07:05:02;;;;;;;30.60;23.20;;;;;;;9.91;66.67;100908.91;105600;1258;60470;-68
2023/04/16 07:07:29;;;;;;;31.30;23.30;;;;;;;9.92;66.77;100907.77;105815;1257;65333;-70
2023/04/16 07:09:58;;;;;;;32.50;23.60;;;;;;;9.95;66.75;100909.33;105746;1257;60346;-70
2023/04/16 07:12:26;;;;;;;30.10;22.90;;;;;;;9.99;66.64;100907.98;105784;1252;61401;-70
2023/04/16 07:14:53;;;;;;;28.80;22.60;;;;;;;10.01;66.74;100909.99;105907;1254;67188;-70
2023/04/16 07:17:20;;;;;;;32.00;22.30;;;;;;;10.03;66.74;100908.28;105673;1254;60450;-72
2023/04/16 07:19:48;;;;;;;29.60;22.70;;;;;;;10.08;66.73;100906.52;106560;1256;65415;-70
2023/04/16 07:22:15;;;;;;;30.30;22.80;;;;;;;10.12;66.70;100908.70;105882;1254;60509;-73
2023/04/16 07:24:42;;;;;;;32.60;23.80;;;;;;;10.14;66.58;100908.02;105849;1253;60946;-73
2023/04/16 07:27:10;;;;;;;33.70;24.40;;;;;;;10.18;66.46;100910.08;105950;1254;65672;-70
2023/04/16 07:29:37;;;;;;;30.80;24.90;;;;;;;10.21;66.49;100911.60;105478;1254;60431;-73
2023/04/16 07:32:06;;;;;;;35.30;23.50;;;;;;;10.23;66.44;100913.06;105674;1257;65346;-70
2023/04/16 07:34:33;;;;;;;30.30;22.90;;;;;;;10.25;66.40;100914.20;105993;1257;61055;-69
2023/04/16 07:37:00;;;;;;;29.10;21.80;;;;;;;10.25;66.21;100915.54;105827;1254;60466;-71
2023/04/16 07:39:28;;;;;;;27.80;21.00;;;;;;;10.27;66.05;100916.90;106069;1256;66601;-72
2023/04/16 07:41:54;;;;;;;23.60;19.60;;;;;;;10.27;66.00;100918.96;107842;1254;68133;-75
2023/04/16 07:44:21;;;;;;;25.20;20.60;;;;;;;10.25;65.99;100921.56;106338;1255;64329;-72
2023/04/16 07:46:48;;;;;;;23.30;19.30;;;;;;;10.26;65.97;100921.69;105909;1254;60424;-71
2023/04/16 07:49:15;;;;;;;25.80;19.60;;;;;;;10.29;65.94;100921.46;105677;1253;61120;-71
2023/04/16 07:51:41;;;;;;;26.00;20.30;;;;;;;10.31;65.82;100920.40;105618;1257;66545;-71
2023/04/16 07:54:09;;;;;;;27.20;20.70;;;;;;;10.33;65.69;100922.40;105954;1257;60303;-71
2023/04/16 07:56:36;;;;;;;27.40;19.70;;;;;;;10.36;65.68;100926.84;105753;1254;65186;-71
2023/04/16 07:59:03;;;;;;;25.00;20.60;;;;;;;10.38;65.59;100924.36;105978;1256;60374;-71
2023/04/16 08:01:49;;;;;;;23.10;19.50;;;;;;;10.42;65.65;100928.00;105875;1255;60463;-71
2023/04/16 08:04:21;;;;;;;26.20;20.00;;;;;;;10.47;65.67;100929.76;105863;1256;66523;-72
2023/04/16 08:06:50;;;;;;;24.20;18.80;;;;;;;10.52;65.56;100929.90;105776;1254;61235;-73
2023/04/16 08:09:19;;;;;;;24.80;18.70;;;;;;;10.54;65.36;100930.62;105703;1257;65739;-71
2023/04/16 08:11:47;;;;;;;22.90;19.30;;;;;;;10.56;65.29;100929.07;105570;1259;60405;-70
2023/04/16 08:14:15;;;;;;;25.00;18.10;;;;;;;10.60;65.24;100926.52;105804;1251;60529;-71
2023/04/16 08:16:42;;;;;;;23.00;17.60;;;;;;;10.65;65.13;100924.77;105871;1251;67005;-71
2023/04/16 08:19:09;;;;;;;22.10;17.10;;;;;;;10.69;65.05;100924.09;105659;1254;60516;-71
2023/04/16 08:21:37;;;;;;;23.60;16.10;;;;;;;10.72;64.90;100927.77;105649;1257;65568;-70
2023/04/16 08:24:04;;;;;;;22.90;17.70;;;;;;;10.76;64.74;100926.05;105802;1256;60438;-72
2023/04/16 08:26:31;;;;;;;23.10;17.40;;;;;;;10.79;64.62;100924.94;105733;1253;60443;-72
2023/04/16 08:28:58;;;;;;;20.90;16.40;;;;;;;10.81;64.48;100923.23;105838;1258;66466;-72
2023/04/16 08:31:25;;;;;;;19.80;15.90;;;;;;;10.83;64.27;100916.21;105708;1257;60481;-71
2023/04/16 08:33:52;;;;;;;22.10;16.20;;;;;;;10.84;64.15;100911.74;105739;1254;65770;-72
2023/04/16 08:36:19;;;;;;;21.60;15.40;;;;;;;10.86;64.13;100908.96;105636;1256;60532;-70
2023/04/16 08:38:51;;;;;;;19.20;14.80;;;;;;;10.92;64.13;100904.86;105788;1255;60523;-72
2023/04/16 08:41:18;;;;;;;19.00;14.90;;;;;;;11.03;64.19;100900.48;105864;1256;66653;-71
2023/04/16 08:43:44;;;;;;;22.30;15.00;;;;;;;11.15;64.07;100898.71;105657;1257;60524;-72
2023/04/16 08:46:11;;;;;;;17.70;14.90;;;;;;;11.22;63.96;100899.96;105883;1257;65294;-72
2023/04/16 08:48:38;;;;;;;18.30;14.80;;;;;;;11.30;63.81;100896.39;105810;1252;60495;-72
2023/04/16 08:51:05;;;;;;;17.70;14.50;;;;;;;11.39;63.67;100891.64;105709;1259;60451;-74
2023/04/16 08:53:36;;;;;;;17.70;14.40;;;;;;;11.50;63.69;100893.15;105864;1252;66713;-71
2023/04/16 08:56:04;;;;;;;19.30;14.20;;;;;;;11.61;63.57;100895.30;105778;1257;60507;-71
2023/04/16 08:58:32;;;;;;;19.10;13.90;;;;;;;11.67;63.09;100898.89;105696;1256;65487;-71
2023/04/16 09:01:01;;;;;;;16.00;14.30;;;;;;;11.68;62.58;100903.08;105657;1254;61129;-73
2023/04/16 09:03:30;;;;;;;16.20;13.30;;;;;;;11.65;62.28;100909.98;105375;1262;60377;-70
2023/04/16 09:06:01;;;;;;;20.20;14.60;;;;;;;11.61;62.08;100917.55;105572;1264;66728;-71
2023/04/16 09:08:30;;;;;;;18.40;13.50;;;;;;;11.58;62.02;100918.11;105912;1257;60417;-71
2023/04/16 09:10:57;;;;;;;18.60;13.60;;;;;;;11.56;61.77;100919.68;105726;1253;65844;-72
2023/04/16 09:13:24;;;;;;;16.40;12.70;;;;;;;11.53;61.64;100924.49;105713;1256;60435;-72
2023/04/16 09:15:55;;;;;;;15.90;12.00;;;;;;;11.52;61.66;100922.48;105658;1256;60338;-71
2023/04/16 09:18:23;;;;;;;14.60;11.60;;;;;;;11.50;61.69;100922.11;105688;1256;66860;-73
2023/04/16 09:20:51;;;;;;;15.20;12.20;;;;;;;11.50;61.73;100919.30;105908;1255;60452;-70
2023/04/16 09:23:18;;;;;;;13.90;11.10;;;;;;;11.53;61.75;100923.13;105928;1256;65404;-73
2023/04/16 09:25:45;;;;;;;15.20;10.50;;;;;;;11.56;61.73;100920.89;105735;1257;60357;-71
2023/04/16 09:28:11;;;;;;;12.90;9.90;;;;;;;11.65;61.68;100917.92;105955;1256;60428;-70
2023/04/16 09:30:40;;;;;;;12.90;9.80;;;;;;;11.65;61.42;100916.34;105655;1252;66860;-71
2023/04/16 09:33:21;;;;;;;12.20;10.00;;;;;;;11.63;61.34;100920.20;105921;1256;60501;-71
2023/04/16 09:35:49;;;;;;;12.40;9.40;;;;;;;11.68;61.54;100929.00;105438;1254;65318;-71
2023/04/16 09:38:16;;;;;;;12.40;9.10;;;;;;;11.75;61.51;100927.58;105952;1257;60463;-71
2023/04/16 09:40:43;;;;;;;11.80;9.20;;;;;;;11.83;61.49;100927.55;105768;1255;60422;-71
2023/04/16 09:43:14;;;;;;;10.60;8.40;;;;;;;11.90;61.34;100926.61;105900;1256;66676;-71
2023/04/16 09:45:51;;;;;;;10.40;8.60;;;;;;;11.95;61.09;100929.09;105612;1254;60354;-73
2023/04/16 09:48:36;;;;;;;9.70;8.30;;;;;;;11.97;60.84;100929.27;105672;1253;64753;-72
2023/04/16 09:51:05;;;;;;;10.30;8.20;;;;;;;11.99;60.61;100932.11;105952;1257;60408;-72
2023/04/16 09:53:32;;;;;;;11.10;7.50;;;;;;;12.01;60.44;100931.65;105751;1257;61360;-72
2023/04/16 09:56:00;;;;;;;9.70;8.10;;;;;;;11.97;60.15;100933.00;105939;1254;65708;-72
2023/04/16 09:58:27;;;;;;;15.00;8.80;;;;;;;11.95;60.12;100933.50;105702;1261;60451;-71
2023/04/16 10:01:01;;;;;;;11.30;8.50;;;;;;;11.97;60.10;100934.77;105642;1254;64418;-71
2023/04/16 10:03:30;;;;;;;10.80;8.20;;;;;;;11.98;59.88;100938.05;105551;1257;60620;-70
2023/04/16 10:06:13;;;;;;;10.50;7.60;;;;;;;11.96;59.77;100937.86;105829;1257;60424;-72
2023/04/16 10:08:49;;;;;;;11.80;7.30;;;;;;;11.94;59.85;100941.17;105365;1264;66566;-72
2023/04/16 10:11:18;;;;;;;9.20;7.00;;;;;;;11.91;59.64;100940.17;105390;1260;60630;-73
2023/04/16 10:13:45;;;;;;;11.70;7.80;;;;;;;11.86;59.61;100943.01;105569;1260;65457;-72
2023/04/16 10:16:12;;;;;;;12.30;7.80;;;;;;;11.84;59.70;100944.23;105584;1257;60462;-72
2023/04/16 10:18:41;;;;;;;10.20;7.90;;;;;;;11.81;59.74;100949.11;105792;1254;60443;-72
2023/04/16 10:21:10;;;;;;;9.10;7.30;;;;;;;11.76;59.82;100950.09;105680;1252;65553;-73
2023/04/16 10:23:38;;;;;;;12.60;11.30;;;;;;;11.76;60.05;100949.56;105966;1257;60411;-71
2023/04/16 10:26:05;;;;;;;8.80;7.40;;;;;;;11.79;60.12;100950.83;106004;1254;64574;-72
2023/04/16 10:28:34;;;;;;;8.90;7.70;;;;;;;11.81;60.13;100953.11;105873;1258;60329;-71
2023/04/16 10:31:02;;;;;;;12.30;8.10;;;;;;;11.83;60.08;100955.77;106000;1257;60453;-71
2023/04/16 10:33:38;;;;;;;9.60;8.60;;;;;;;11.81;60.05;100961.39;105583;1259;66596;-72
2023/04/16 10:36:13;;;;;;;12.60;8.50;;;;;;;11.76;59.99;100966.15;105787;1255;60466;-72
2023/04/16 10:38:48;;;;;;;12.60;8.90;;;;;;;11.73;59.88;100963.42;105621;1254;65530;-71
2023/04/16 10:49:01;;;;;;;12.30;8.20;;;;;;;11.63;60.15;100960.29;102695;1302;600384;-72
2023/04/16 10:51:35;;;;;;;10.10;8.60;;;;;;;11.58;60.35;100960.11;104659;1267;59267;-73
2023/04/16 10:54:03;;;;;;;9.90;8.40;;;;;;;11.59;60.64;100962.70;104884;1267;59369;-73
2023/04/16 10:56:32;;;;;;;12.90;9.40;;;;;;;11.60;60.79;100964.52;104884;1270;65129;-71
2023/04/16 10:59:03;;;;;;;13.60;11.60;;;;;;;11.62;60.89;100965.28;104898;1269;59855;-72
2023/04/16 11:01:31;;;;;;;11.10;9.00;;;;;;;11.64;60.87;100968.31;104756;1264;158026;-72
2023/04/16 11:04:03;;;;;;;12.20;10.30;;;;;;;11.65;60.76;100970.84;105285;1263;59161;-72
2023/04/16 11:06:31;;;;;;;11.40;9.50;;;;;;;11.65;60.66;100972.45;105927;1257;59371;-71
2023/04/16 11:08:59;;;;;;;12.90;9.70;;;;;;;11.60;60.63;100973.02;105914;1256;64417;-73
2023/04/16 11:11:28;;;;;;;14.20;11.10;;;;;;;11.53;60.70;100970.35;105745;1259;60145;-72
2023/04/16 11:13:56;;;;;;;12.50;10.00;;;;;;;11.48;60.92;100972.29;105922;1254;64716;-72
2023/04/16 11:23:58;;;;;;;13.50;11.00;;;;;;;11.54;60.52;100963.92;102587;1292;600475;-71
2023/04/16 11:26:28;;;;;;;12.10;9.80;;;;;;;11.51;60.47;100962.56;105013;1268;60468;-72